sensor_id;sensor_type;location;lat;lon;timestamp;P1;durP1;ratioP1;P2;durP2;ratioP2
21448;SDS011;10885;52.830;13.788;2022-09-02T04:38:30;3.78;;;2.17;;
21448;SDS011;10885;52.830;13.788;2022-09-02T04:43:32;3.60;;;2.13;;
21448;SDS011;10885;52.830;13.788;2022-09-02T04:48:35;7.03;;;2.17;;
21448;SDS011;10885;52.830;13.788;2022-09-02T04:53:38;5.93;;;2.45;;
21448;SDS011;10885;52.830;13.788;2022-09-02T04:58:42;5.63;;;2.20;;
21448;SDS011;10885;52.830;13.788;2022-09-02T05:03:47;4.82;;;2.28;;
21448;SDS011;10885;52.830;13.788;2022-09-02T05:08:50;3.80;;;2.05;;
21448;SDS011;10885;52.830;13.788;2022-09-02T05:13:53;4.35;;;2.40;;
21448;SDS011;10885;52.830;13.788;2022-09-02T05:18:58;5.63;;;2.30;;
21448;SDS011;10885;52.830;13.788;2022-09-02T05:24:10;4.90;;;2.30;;
21448;SDS011;10885;52.830;13.788;2022-09-02T05:29:12;4.05;;;2.85;;
21448;SDS011;10885;52.830;13.788;2022-09-02T05:34:17;3.33;;;2.20;;
21448;SDS011;10885;52.830;13.788;2022-09-02T05:39:20;5.10;;;2.00;;
21448;SDS011;10885;52.830;13.788;2022-09-02T05:44:23;2.67;;;1.98;;
21448;SDS011;10885;52.830;13.788;2022-09-02T05:49:26;4.50;;;2.88;;
21448;SDS011;10885;52.830;13.788;2022-09-02T05:54:37;3.40;;;2.17;;
21448;SDS011;10885;52.830;13.788;2022-09-02T05:59:44;5.10;;;2.40;;
21448;SDS011;10885;52.830;13.788;2022-09-02T06:04:53;4.15;;;2.00;;
21448;SDS011;10885;52.830;13.788;2022-09-02T06:09:56;3.35;;;1.88;;
21448;SDS011;10885;52.830;13.788;2022-09-02T06:15:00;4.47;;;1.80;;
21448;SDS011;10885;52.830;13.788;2022-09-02T06:20:04;5.28;;;2.25;;
21448;SDS011;10885;52.830;13.788;2022-09-02T06:25:07;2.47;;;1.65;;
21448;SDS011;10885;52.830;13.788;2022-09-02T06:30:10;2.95;;;2.35;;
21448;SDS011;10885;52.830;13.788;2022-09-02T06:35:14;6.82;;;1.80;;
21448;SDS011;10885;52.830;13.788;2022-09-02T06:40:17;3.03;;;2.03;;
21448;SDS011;10885;52.830;13.788;2022-09-02T06:45:22;2.90;;;1.92;;
21448;SDS011;10885;52.830;13.788;2022-09-02T06:50:31;2.08;;;1.60;;
21448;SDS011;10885;52.830;13.788;2022-09-02T06:55:34;4.60;;;1.90;;
21448;SDS011;10885;52.830;13.788;2022-09-02T07:00:40;4.32;;;1.75;;
21448;SDS011;10885;52.830;13.788;2022-09-02T07:05:44;2.85;;;2.08;;
21448;SDS011;10885;52.830;13.788;2022-09-02T07:10:48;8.65;;;2.10;;
21448;SDS011;10885;52.830;13.788;2022-09-02T07:15:51;4.07;;;1.90;;
21448;SDS011;10885;52.830;13.788;2022-09-02T07:20:54;4.45;;;1.88;;
21448;SDS011;10885;52.830;13.788;2022-09-02T07:25:57;5.18;;;2.40;;
21448;SDS011;10885;52.830;13.788;2022-09-02T07:31:00;4.25;;;1.92;;
21448;SDS011;10885;52.830;13.788;2022-09-02T07:36:04;4.20;;;2.05;;
21448;SDS011;10885;52.830;13.788;2022-09-02T07:41:14;5.55;;;1.90;;
21448;SDS011;10885;52.830;13.788;2022-09-02T07:46:16;3.33;;;1.98;;
21448;SDS011;10885;52.830;13.788;2022-09-02T07:51:21;5.20;;;2.03;;
21448;SDS011;10885;52.830;13.788;2022-09-02T07:56:30;4.88;;;1.80;;
21448;SDS011;10885;52.830;13.788;2022-09-02T08:01:33;3.58;;;2.08;;
21448;SDS011;10885;52.830;13.788;2022-09-02T08:06:37;5.47;;;2.10;;
21448;SDS011;10885;52.830;13.788;2022-09-02T08:11:40;3.85;;;1.92;;
21448;SDS011;10885;52.830;13.788;2022-09-02T08:16:45;3.83;;;2.20;;
21448;SDS011;10885;52.830;13.788;2022-09-02T08:21:48;4.75;;;2.03;;
21448;SDS011;10885;52.830;13.788;2022-09-02T08:26:52;4.60;;;2.08;;
21448;SDS011;10885;52.830;13.788;2022-09-02T08:31:54;11.52;;;2.00;;
21448;SDS011;10885;52.830;13.788;2022-09-02T08:36:56;5.35;;;2.00;;
21448;SDS011;10885;52.830;13.788;2022-09-02T08:43:00;5.43;;;1.67;;
21448;SDS011;10885;52.830;13.788;2022-09-02T08:47:34;2.20;;;1.70;;
21448;SDS011;10885;52.830;13.788;2022-09-02T08:57:46;2.30;;;1.80;;
21448;SDS011;10885;52.830;13.788;2022-09-02T09:03:59;5.90;;;1.63;;
21448;SDS011;10885;52.830;13.788;2022-09-02T09:19:02;3.92;;;2.10;;
21448;SDS011;10885;52.830;13.788;2022-09-02T09:24:25;3.67;;;2.17;;
21448;SDS011;10885;52.830;13.788;2022-09-02T09:29:33;4.88;;;1.90;;
21448;SDS011;10885;52.830;13.788;2022-09-02T09:39:54;4.80;;;1.73;;
21448;SDS011;10885;52.830;13.788;2022-09-02T09:44:57;6.63;;;1.92;;
21448;SDS011;10885;52.830;13.788;2022-09-02T09:50:13;3.03;;;1.60;;
21448;SDS011;10885;52.830;13.788;2022-09-02T09:55:19;2.83;;;1.83;;
21448;SDS011;10885;52.830;13.788;2022-09-02T10:00:27;2.03;;;1.35;;
21448;SDS011;10885;52.830;13.788;2022-09-02T10:05:37;2.55;;;1.60;;
21448;SDS011;10885;52.830;13.788;2022-09-02T10:10:53;3.53;;;1.40;;
21448;SDS011;10885;52.830;13.788;2022-09-02T10:16:00;4.05;;;1.25;;
21448;SDS011;10885;52.830;13.788;2022-09-02T10:26:47;1.98;;;1.40;;
21448;SDS011;10885;52.830;13.788;2022-09-02T10:37:25;3.03;;;1.70;;
21448;SDS011;10885;52.830;13.788;2022-09-02T10:53:35;6.93;;;1.35;;
21448;SDS011;10885;52.830;13.788;2022-09-02T10:58:49;4.30;;;1.30;;
21448;SDS011;10885;52.830;13.788;2022-09-02T11:20:28;1.17;;;0.80;;
21448;SDS011;10885;52.830;13.788;2022-09-02T11:25:38;1.65;;;1.00;;
21448;SDS011;10885;52.830;13.788;2022-09-02T11:30:54;2.55;;;1.00;;
21448;SDS011;10885;52.830;13.788;2022-09-02T11:36:03;2.70;;;1.05;;
21448;SDS011;10885;52.830;13.788;2022-09-02T11:56:56;5.32;;;1.48;;
21448;SDS011;10885;52.830;13.788;2022-09-02T12:17:39;1.30;;;0.93;;
21448;SDS011;10885;52.830;13.788;2022-09-02T12:22:47;2.38;;;1.00;;
21448;SDS011;10885;52.830;13.788;2022-09-02T12:27:49;1.67;;;0.80;;
21448;SDS011;10885;52.830;13.788;2022-09-02T12:33:10;2.28;;;0.93;;
21448;SDS011;10885;52.830;13.788;2022-09-02T12:43:22;1.25;;;0.95;;
21448;SDS011;10885;52.830;13.788;2022-09-02T12:48:38;1.45;;;0.90;;
21448;SDS011;10885;52.830;13.788;2022-09-02T12:53:48;0.98;;;0.82;;
21448;SDS011;10885;52.830;13.788;2022-09-02T12:58:52;2.90;;;0.90;;
21448;SDS011;10885;52.830;13.788;2022-09-02T13:04:11;3.60;;;1.00;;
21448;SDS011;10885;52.830;13.788;2022-09-02T13:14:57;1.00;;;1.00;;
21448;SDS011;10885;52.830;13.788;2022-09-02T13:35:53;1.65;;;1.10;;
21448;SDS011;10885;52.830;13.788;2022-09-02T13:40:58;3.28;;;1.02;;
21448;SDS011;10885;52.830;13.788;2022-09-02T13:46:00;5.07;;;1.00;;
21448;SDS011;10885;52.830;13.788;2022-09-02T13:51:08;2.55;;;0.90;;
21448;SDS011;10885;52.830;13.788;2022-09-02T13:56:14;3.67;;;0.98;;
21448;SDS011;10885;52.830;13.788;2022-09-02T14:01:20;1.27;;;0.95;;
21448;SDS011;10885;52.830;13.788;2022-09-02T14:06:39;6.57;;;1.00;;
21448;SDS011;10885;52.830;13.788;2022-09-02T14:11:43;1.58;;;0.77;;
21448;SDS011;10885;52.830;13.788;2022-09-02T14:16:47;2.17;;;0.75;;
21448;SDS011;10885;52.830;13.788;2022-09-02T14:21:50;2.83;;;0.98;;
21448;SDS011;10885;52.830;13.788;2022-09-02T14:26:55;3.15;;;0.90;;
21448;SDS011;10885;52.830;13.788;2022-09-02T14:37:20;1.23;;;0.80;;
21448;SDS011;10885;52.830;13.788;2022-09-02T14:42:23;1.60;;;0.88;;
21448;SDS011;10885;52.830;13.788;2022-09-02T14:47:30;6.13;;;0.90;;
21448;SDS011;10885;52.830;13.788;2022-09-02T14:57:46;3.25;;;0.90;;
21448;SDS011;10885;52.830;13.788;2022-09-02T15:02:52;7.28;;;1.33;;
21448;SDS011;10885;52.830;13.788;2022-09-02T15:07:58;1.80;;;0.80;;
21448;SDS011;10885;52.830;13.788;2022-09-02T15:13:00;1.40;;;0.85;;
21448;SDS011;10885;52.830;13.788;2022-09-02T15:18:02;0.93;;;0.70;;
21448;SDS011;10885;52.830;13.788;2022-09-02T15:23:09;1.25;;;1.00;;
21448;SDS011;10885;52.830;13.788;2022-09-02T15:28:12;1.33;;;0.90;;
21448;SDS011;10885;52.830;13.788;2022-09-02T15:33:14;1.42;;;0.80;;
21448;SDS011;10885;52.830;13.788;2022-09-02T15:38:18;2.17;;;0.80;;
21448;SDS011;10885;52.830;13.788;2022-09-02T15:43:20;2.83;;;0.73;;
21448;SDS011;10885;52.830;13.788;2022-09-02T15:48:24;1.15;;;0.82;;
21448;SDS011;10885;52.830;13.788;2022-09-02T15:53:26;1.60;;;0.90;;
21448;SDS011;10885;52.830;13.788;2022-09-02T15:58:28;2.20;;;1.08;;
21448;SDS011;10885;52.830;13.788;2022-09-02T16:03:31;1.20;;;1.00;;
21448;SDS011;10885;52.830;13.788;2022-09-02T16:08:33;3.10;;;1.00;;
21448;SDS011;10885;52.830;13.788;2022-09-02T16:13:36;4.35;;;1.27;;
21448;SDS011;10885;52.830;13.788;2022-09-02T16:18:39;3.83;;;1.10;;
21448;SDS011;10885;52.830;13.788;2022-09-02T16:23:42;1.17;;;1.08;;
21448;SDS011;10885;52.830;13.788;2022-09-02T16:28:44;3.50;;;1.17;;
21448;SDS011;10885;52.830;13.788;2022-09-02T16:39:24;1.70;;;1.10;;
21448;SDS011;10885;52.830;13.788;2022-09-02T16:44:27;5.00;;;1.38;;
21448;SDS011;10885;52.830;13.788;2022-09-02T16:49:30;3.65;;;1.23;;
21448;SDS011;10885;52.830;13.788;2022-09-02T16:54:32;1.25;;;1.15;;
21448;SDS011;10885;52.830;13.788;2022-09-02T16:59:41;3.40;;;1.20;;
21448;SDS011;10885;52.830;13.788;2022-09-02T17:04:43;2.35;;;1.40;;
21448;SDS011;10885;52.830;13.788;2022-09-02T17:09:46;1.77;;;0.90;;
21448;SDS011;10885;52.830;13.788;2022-09-02T17:14:48;5.25;;;1.40;;
21448;SDS011;10885;52.830;13.788;2022-09-02T17:19:50;2.05;;;1.27;;
21448;SDS011;10885;52.830;13.788;2022-09-02T17:24:53;4.07;;;1.35;;
21448;SDS011;10885;52.830;13.788;2022-09-02T17:29:55;1.23;;;1.13;;
21448;SDS011;10885;52.830;13.788;2022-09-02T17:35:00;6.40;;;1.30;;
21448;SDS011;10885;52.830;13.788;2022-09-02T17:40:04;1.00;;;1.00;;
21448;SDS011;10885;52.830;13.788;2022-09-02T17:45:08;4.97;;;1.38;;
21448;SDS011;10885;52.830;13.788;2022-09-02T17:50:10;2.95;;;1.42;;
21448;SDS011;10885;52.830;13.788;2022-09-02T17:55:18;2.70;;;1.40;;
21448;SDS011;10885;52.830;13.788;2022-09-02T18:00:21;2.05;;;1.17;;
21448;SDS011;10885;52.830;13.788;2022-09-02T18:05:30;4.35;;;1.20;;
21448;SDS011;10885;52.830;13.788;2022-09-02T18:10:50;1.85;;;1.25;;
21448;SDS011;10885;52.830;13.788;2022-09-02T18:27:38;6.03;;;1.70;;
21448;SDS011;10885;52.830;13.788;2022-09-02T18:38:20;6.97;;;2.40;;
21448;SDS011;10885;52.830;13.788;2022-09-02T18:43:39;5.15;;;2.47;;
21448;SDS011;10885;52.830;13.788;2022-09-02T18:48:55;5.88;;;2.55;;
21448;SDS011;10885;52.830;13.788;2022-09-02T18:54:04;3.83;;;2.30;;
21448;SDS011;10885;52.830;13.788;2022-09-02T18:59:14;5.07;;;2.53;;
21448;SDS011;10885;52.830;13.788;2022-09-02T19:04:30;5.72;;;2.65;;
21448;SDS011;10885;52.830;13.788;2022-09-02T19:09:35;5.65;;;2.53;;
21448;SDS011;10885;52.830;13.788;2022-09-02T19:14:38;5.00;;;2.22;;
21448;SDS011;10885;52.830;13.788;2022-09-02T19:19:43;6.00;;;2.72;;
21448;SDS011;10885;52.830;13.788;2022-09-02T19:24:46;8.02;;;3.13;;
21448;SDS011;10885;52.830;13.788;2022-09-02T19:29:53;5.10;;;2.70;;
21448;SDS011;10885;52.830;13.788;2022-09-02T19:35:07;5.45;;;2.85;;
21448;SDS011;10885;52.830;13.788;2022-09-02T19:40:10;8.45;;;3.38;;
21448;SDS011;10885;52.830;13.788;2022-09-02T19:45:15;5.95;;;3.53;;
21448;SDS011;10885;52.830;13.788;2022-09-02T19:50:17;6.72;;;3.88;;
21448;SDS011;10885;52.830;13.788;2022-09-02T19:55:20;10.13;;;4.00;;
21448;SDS011;10885;52.830;13.788;2022-09-02T20:00:22;6.28;;;4.53;;
21448;SDS011;10885;52.830;13.788;2022-09-02T20:05:25;8.27;;;4.53;;
21448;SDS011;10885;52.830;13.788;2022-09-02T20:10:27;9.75;;;4.85;;
21448;SDS011;10885;52.830;13.788;2022-09-02T20:15:34;8.60;;;4.85;;
21448;SDS011;10885;52.830;13.788;2022-09-02T20:20:40;7.03;;;4.80;;
21448;SDS011;10885;52.830;13.788;2022-09-02T20:26:02;8.23;;;4.67;;
21448;SDS011;10885;52.830;13.788;2022-09-02T20:42:21;9.00;;;5.20;;
21448;SDS011;10885;52.830;13.788;2022-09-02T21:09:02;12.63;;;7.47;;
21448;SDS011;10885;52.830;13.788;2022-09-02T21:14:19;11.85;;;7.90;;
21448;SDS011;10885;52.830;13.788;2022-09-02T21:19:31;9.48;;;5.97;;
21448;SDS011;10885;52.830;13.788;2022-09-02T21:30:07;13.02;;;6.88;;
21448;SDS011;10885;52.830;13.788;2022-09-02T21:40:20;12.15;;;6.53;;
